sensor_id;sensor_type;location;lat;lon;timestamp;P1;durP1;ratioP1;P2;durP2;ratioP2
76121;SDS011;70471;53.200;6.080;2023-12-04T00:01:19;2.03;;;1.90;;
76121;SDS011;70471;53.200;6.080;2023-12-04T00:06:12;2.22;;;1.85;;
76121;SDS011;70471;53.200;6.080;2023-12-04T00:11:04;2.30;;;1.65;;
76121;SDS011;70471;53.200;6.080;2023-12-04T00:15:56;2.03;;;1.73;;
76121;SDS011;70471;53.200;6.080;2023-12-04T00:20:48;2.05;;;1.73;;
76121;SDS011;70471;53.200;6.080;2023-12-04T00:25:41;3.65;;;2.10;;
76121;SDS011;70471;53.200;6.080;2023-12-04T00:30:32;2.78;;;2.00;;
76121;SDS011;70471;53.200;6.080;2023-12-04T00:35:24;3.00;;;1.90;;
76121;SDS011;70471;53.200;6.080;2023-12-04T00:40:17;2.85;;;2.28;;
76121;SDS011;70471;53.200;6.080;2023-12-04T00:45:10;2.17;;;1.80;;
76121;SDS011;70471;53.200;6.080;2023-12-04T00:50:03;2.40;;;1.92;;
76121;SDS011;70471;53.200;6.080;2023-12-04T00:54:55;1.73;;;1.63;;
76121;SDS011;70471;53.200;6.080;2023-12-04T00:59:48;2.45;;;1.90;;
76121;SDS011;70471;53.200;6.080;2023-12-04T01:04:43;2.58;;;1.90;;
76121;SDS011;70471;53.200;6.080;2023-12-04T01:09:35;1.80;;;1.70;;
76121;SDS011;70471;53.200;6.080;2023-12-04T01:14:27;2.55;;;1.90;;
76121;SDS011;70471;53.200;6.080;2023-12-04T01:19:20;2.38;;;1.85;;
76121;SDS011;70471;53.200;6.080;2023-12-04T01:24:15;2.08;;;1.73;;
76121;SDS011;70471;53.200;6.080;2023-12-04T01:29:08;2.05;;;1.83;;
76121;SDS011;70471;53.200;6.080;2023-12-04T01:34:00;1.85;;;1.70;;
76121;SDS011;70471;53.200;6.080;2023-12-04T01:38:52;1.75;;;1.65;;
76121;SDS011;70471;53.200;6.080;2023-12-04T01:43:46;1.70;;;1.52;;
76121;SDS011;70471;53.200;6.080;2023-12-04T01:48:38;1.48;;;1.33;;
76121;SDS011;70471;53.200;6.080;2023-12-04T01:53:31;1.83;;;1.58;;
76121;SDS011;70471;53.200;6.080;2023-12-04T01:58:24;1.83;;;1.58;;
76121;SDS011;70471;53.200;6.080;2023-12-04T02:03:28;1.63;;;1.52;;
76121;SDS011;70471;53.200;6.080;2023-12-04T02:08:37;1.80;;;1.70;;
76121;SDS011;70471;53.200;6.080;2023-12-04T02:13:29;1.65;;;1.52;;
76121;SDS011;70471;53.200;6.080;2023-12-04T02:18:23;1.65;;;1.38;;
76121;SDS011;70471;53.200;6.080;2023-12-04T02:23:17;1.67;;;1.52;;
76121;SDS011;70471;53.200;6.080;2023-12-04T02:28:11;2.22;;;1.38;;
76121;SDS011;70471;53.200;6.080;2023-12-04T02:33:07;1.63;;;1.40;;
76121;SDS011;70471;53.200;6.080;2023-12-04T02:38:03;1.65;;;1.40;;
76121;SDS011;70471;53.200;6.080;2023-12-04T02:42:56;1.88;;;1.60;;
76121;SDS011;70471;53.200;6.080;2023-12-04T02:47:50;1.80;;;1.70;;
76121;SDS011;70471;53.200;6.080;2023-12-04T02:52:42;1.40;;;1.30;;
76121;SDS011;70471;53.200;6.080;2023-12-04T02:57:34;1.75;;;1.42;;
76121;SDS011;70471;53.200;6.080;2023-12-04T03:02:26;1.40;;;1.30;;
76121;SDS011;70471;53.200;6.080;2023-12-04T03:07:21;1.95;;;1.45;;
76121;SDS011;70471;53.200;6.080;2023-12-04T03:12:14;1.48;;;1.38;;
76121;SDS011;70471;53.200;6.080;2023-12-04T03:17:22;1.92;;;1.58;;
76121;SDS011;70471;53.200;6.080;2023-12-04T03:22:14;1.65;;;1.55;;
76121;SDS011;70471;53.200;6.080;2023-12-04T03:27:09;2.15;;;1.92;;
76121;SDS011;70471;53.200;6.080;2023-12-04T03:32:01;2.03;;;1.70;;
76121;SDS011;70471;53.200;6.080;2023-12-04T03:36:53;1.65;;;1.55;;
76121;SDS011;70471;53.200;6.080;2023-12-04T03:41:46;1.85;;;1.58;;
76121;SDS011;70471;53.200;6.080;2023-12-04T03:46:41;1.92;;;1.60;;
76121;SDS011;70471;53.200;6.080;2023-12-04T03:51:33;1.70;;;1.60;;
76121;SDS011;70471;53.200;6.080;2023-12-04T03:56:26;1.75;;;1.35;;
76121;SDS011;70471;53.200;6.080;2023-12-04T04:01:19;1.88;;;1.55;;
76121;SDS011;70471;53.200;6.080;2023-12-04T04:06:13;2.10;;;1.67;;
76121;SDS011;70471;53.200;6.080;2023-12-04T04:11:06;2.50;;;1.73;;
76121;SDS011;70471;53.200;6.080;2023-12-04T04:15:58;3.03;;;1.60;;
76121;SDS011;70471;53.200;6.080;2023-12-04T04:20:50;2.03;;;1.60;;
76121;SDS011;70471;53.200;6.080;2023-12-04T04:25:44;1.92;;;1.63;;
76121;SDS011;70471;53.200;6.080;2023-12-04T04:30:37;2.63;;;1.92;;
76121;SDS011;70471;53.200;6.080;2023-12-04T04:35:30;1.92;;;1.70;;
76121;SDS011;70471;53.200;6.080;2023-12-04T04:40:22;2.03;;;1.50;;
76121;SDS011;70471;53.200;6.080;2023-12-04T04:45:16;2.47;;;2.20;;
76121;SDS011;70471;53.200;6.080;2023-12-04T04:50:09;1.98;;;1.60;;
76121;SDS011;70471;53.200;6.080;2023-12-04T04:55:01;1.70;;;1.60;;
76121;SDS011;70471;53.200;6.080;2023-12-04T04:59:53;2.42;;;1.60;;
76121;SDS011;70471;53.200;6.080;2023-12-04T05:04:47;1.65;;;1.55;;
76121;SDS011;70471;53.200;6.080;2023-12-04T05:09:39;2.28;;;1.63;;
76121;SDS011;70471;53.200;6.080;2023-12-04T05:14:32;2.30;;;1.83;;
76121;SDS011;70471;53.200;6.080;2023-12-04T05:19:24;2.42;;;1.60;;
76121;SDS011;70471;53.200;6.080;2023-12-04T05:24:18;2.03;;;1.70;;
76121;SDS011;70471;53.200;6.080;2023-12-04T05:29:10;2.05;;;1.70;;
76121;SDS011;70471;53.200;6.080;2023-12-04T05:34:02;1.90;;;1.55;;
76121;SDS011;70471;53.200;6.080;2023-12-04T05:38:55;1.67;;;1.45;;
76121;SDS011;70471;53.200;6.080;2023-12-04T05:43:49;2.42;;;1.73;;
76121;SDS011;70471;53.200;6.080;2023-12-04T05:48:42;2.17;;;1.50;;
76121;SDS011;70471;53.200;6.080;2023-12-04T05:53:34;2.00;;;1.80;;
76121;SDS011;70471;53.200;6.080;2023-12-04T05:58:27;1.80;;;1.42;;
76121;SDS011;70471;53.200;6.080;2023-12-04T06:03:21;1.92;;;1.20;;
76121;SDS011;70471;53.200;6.080;2023-12-04T06:08:13;1.55;;;1.40;;
76121;SDS011;70471;53.200;6.080;2023-12-04T06:13:06;1.45;;;1.13;;
76121;SDS011;70471;53.200;6.080;2023-12-04T06:17:58;1.70;;;1.40;;
76121;SDS011;70471;53.200;6.080;2023-12-04T06:22:52;1.92;;;1.60;;
76121;SDS011;70471;53.200;6.080;2023-12-04T06:27:45;1.92;;;1.30;;
76121;SDS011;70471;53.200;6.080;2023-12-04T06:32:38;1.67;;;1.52;;
76121;SDS011;70471;53.200;6.080;2023-12-04T06:37:31;1.90;;;1.30;;
76121;SDS011;70471;53.200;6.080;2023-12-04T06:42:26;1.75;;;1.52;;
76121;SDS011;70471;53.200;6.080;2023-12-04T06:47:20;2.50;;;1.70;;
76121;SDS011;70471;53.200;6.080;2023-12-04T06:52:14;1.70;;;1.35;;
76121;SDS011;70471;53.200;6.080;2023-12-04T06:57:07;7.25;;;1.52;;
76121;SDS011;70471;53.200;6.080;2023-12-04T07:02:01;1.88;;;1.77;;
76121;SDS011;70471;53.200;6.080;2023-12-04T07:06:53;1.95;;;1.27;;
76121;SDS011;70471;53.200;6.080;2023-12-04T07:11:46;1.63;;;1.30;;
76121;SDS011;70471;53.200;6.080;2023-12-04T07:16:38;1.80;;;1.10;;
76121;SDS011;70471;53.200;6.080;2023-12-04T07:21:33;1.42;;;1.33;;
76121;SDS011;70471;53.200;6.080;2023-12-04T07:26:25;1.88;;;1.30;;
76121;SDS011;70471;53.200;6.080;2023-12-04T07:31:17;1.35;;;1.25;;
76121;SDS011;70471;53.200;6.080;2023-12-04T07:36:10;1.85;;;1.33;;
76121;SDS011;70471;53.200;6.080;2023-12-04T07:41:04;1.33;;;1.17;;
76121;SDS011;70471;53.200;6.080;2023-12-04T07:45:56;1.33;;;1.23;;
76121;SDS011;70471;53.200;6.080;2023-12-04T07:50:48;1.58;;;1.15;;
76121;SDS011;70471;53.200;6.080;2023-12-04T07:55:41;1.60;;;1.23;;
76121;SDS011;70471;53.200;6.080;2023-12-04T08:00:35;1.55;;;1.10;;
76121;SDS011;70471;53.200;6.080;2023-12-04T08:05:26;1.25;;;1.05;;
76121;SDS011;70471;53.200;6.080;2023-12-04T08:10:18;1.23;;;1.05;;
76121;SDS011;70471;53.200;6.080;2023-12-04T08:15:09;1.25;;;1.10;;
76121;SDS011;70471;53.200;6.080;2023-12-04T08:20:02;1.77;;;1.00;;
76121;SDS011;70471;53.200;6.080;2023-12-04T08:24:54;1.30;;;0.90;;
76121;SDS011;70471;53.200;6.080;2023-12-04T08:29:46;1.33;;;1.00;;
76121;SDS011;70471;53.200;6.080;2023-12-04T08:34:37;1.52;;;1.15;;
76121;SDS011;70471;53.200;6.080;2023-12-04T08:39:30;1.60;;;1.00;;
76121;SDS011;70471;53.200;6.080;2023-12-04T08:44:21;1.58;;;0.90;;
76121;SDS011;70471;53.200;6.080;2023-12-04T08:49:13;1.05;;;0.90;;
76121;SDS011;70471;53.200;6.080;2023-12-04T08:54:06;1.30;;;0.95;;
76121;SDS011;70471;53.200;6.080;2023-12-04T08:58:59;0.98;;;0.90;;
76121;SDS011;70471;53.200;6.080;2023-12-04T09:03:51;1.08;;;0.88;;
76121;SDS011;70471;53.200;6.080;2023-12-04T09:08:43;1.15;;;0.85;;
76121;SDS011;70471;53.200;6.080;2023-12-04T09:13:34;1.30;;;0.98;;
76121;SDS011;70471;53.200;6.080;2023-12-04T09:18:27;1.83;;;1.05;;
76121;SDS011;70471;53.200;6.080;2023-12-04T09:23:19;1.13;;;1.00;;
76121;SDS011;70471;53.200;6.080;2023-12-04T09:28:10;1.02;;;0.90;;
76121;SDS011;70471;53.200;6.080;2023-12-04T09:33:02;1.27;;;0.90;;
76121;SDS011;70471;53.200;6.080;2023-12-04T09:37:55;1.50;;;1.10;;
76121;SDS011;70471;53.200;6.080;2023-12-04T09:42:47;1.38;;;0.93;;
76121;SDS011;70471;53.200;6.080;2023-12-04T09:47:39;0.77;;;0.70;;
76121;SDS011;70471;53.200;6.080;2023-12-04T09:52:30;1.85;;;1.05;;
76121;SDS011;70471;53.200;6.080;2023-12-04T09:57:24;0.80;;;0.80;;
76121;SDS011;70471;53.200;6.080;2023-12-04T10:02:16;0.68;;;0.65;;
76121;SDS011;70471;53.200;6.080;2023-12-04T10:07:07;1.10;;;1.00;;
76121;SDS011;70471;53.200;6.080;2023-12-04T10:11:59;1.00;;;0.73;;
76121;SDS011;70471;53.200;6.080;2023-12-04T10:16:53;1.10;;;1.00;;
76121;SDS011;70471;53.200;6.080;2023-12-04T10:21:45;1.13;;;0.95;;
76121;SDS011;70471;53.200;6.080;2023-12-04T10:26:37;1.30;;;0.88;;
76121;SDS011;70471;53.200;6.080;2023-12-04T10:31:40;1.25;;;0.93;;
76121;SDS011;70471;53.200;6.080;2023-12-04T10:36:34;1.13;;;0.95;;
76121;SDS011;70471;53.200;6.080;2023-12-04T10:41:26;1.60;;;1.08;;
76121;SDS011;70471;53.200;6.080;2023-12-04T10:46:18;1.30;;;1.20;;
76121;SDS011;70471;53.200;6.080;2023-12-04T10:51:11;1.63;;;0.90;;
76121;SDS011;70471;53.200;6.080;2023-12-04T10:56:07;1.25;;;0.82;;
76121;SDS011;70471;53.200;6.080;2023-12-04T11:01:02;0.90;;;0.80;;
76121;SDS011;70471;53.200;6.080;2023-12-04T11:05:59;1.27;;;1.00;;
76121;SDS011;70471;53.200;6.080;2023-12-04T11:10:55;1.27;;;1.00;;
76121;SDS011;70471;53.200;6.080;2023-12-04T11:15:52;1.00;;;0.80;;
76121;SDS011;70471;53.200;6.080;2023-12-04T11:20:51;3.58;;;1.40;;
76121;SDS011;70471;53.200;6.080;2023-12-04T11:25:47;1.05;;;0.80;;
76121;SDS011;70471;53.200;6.080;2023-12-04T11:30:39;0.95;;;0.80;;
76121;SDS011;70471;53.200;6.080;2023-12-04T11:35:33;0.90;;;0.82;;
76121;SDS011;70471;53.200;6.080;2023-12-04T11:40:24;1.40;;;0.80;;
76121;SDS011;70471;53.200;6.080;2023-12-04T11:45:18;1.00;;;0.90;;
76121;SDS011;70471;53.200;6.080;2023-12-04T11:50:10;1.30;;;0.90;;
76121;SDS011;70471;53.200;6.080;2023-12-04T11:55:03;2.30;;;1.02;;
76121;SDS011;70471;53.200;6.080;2023-12-04T12:00:08;1.17;;;0.90;;
76121;SDS011;70471;53.200;6.080;2023-12-04T12:05:02;1.15;;;0.85;;
76121;SDS011;70471;53.200;6.080;2023-12-04T12:09:54;0.60;;;0.60;;
76121;SDS011;70471;53.200;6.080;2023-12-04T12:14:48;1.40;;;0.70;;
76121;SDS011;70471;53.200;6.080;2023-12-04T12:19:40;0.80;;;0.80;;
76121;SDS011;70471;53.200;6.080;2023-12-04T12:24:31;1.70;;;0.70;;
76121;SDS011;70471;53.200;6.080;2023-12-04T12:29:23;1.55;;;0.80;;
76121;SDS011;70471;53.200;6.080;2023-12-04T12:34:16;1.33;;;0.82;;
76121;SDS011;70471;53.200;6.080;2023-12-04T12:39:09;1.83;;;0.80;;
76121;SDS011;70471;53.200;6.080;2023-12-04T12:44:02;0.68;;;0.60;;
76121;SDS011;70471;53.200;6.080;2023-12-04T12:48:56;1.15;;;0.65;;
76121;SDS011;70471;53.200;6.080;2023-12-04T12:53:49;1.45;;;0.70;;
76121;SDS011;70471;53.200;6.080;2023-12-04T12:58:41;1.13;;;0.70;;
76121;SDS011;70471;53.200;6.080;2023-12-04T13:03:34;1.08;;;0.80;;
76121;SDS011;70471;53.200;6.080;2023-12-04T13:08:28;1.45;;;0.90;;
76121;SDS011;70471;53.200;6.080;2023-12-04T13:13:23;1.30;;;1.10;;
76121;SDS011;70471;53.200;6.080;2023-12-04T13:18:17;2.10;;;1.23;;
76121;SDS011;70471;53.200;6.080;2023-12-04T13:23:09;2.75;;;1.27;;
76121;SDS011;70471;53.200;6.080;2023-12-04T13:28:01;2.55;;;1.80;;
76121;SDS011;70471;53.200;6.080;2023-12-04T13:32:55;1.80;;;1.38;;
76121;SDS011;70471;53.200;6.080;2023-12-04T13:37:50;1.95;;;1.55;;
76121;SDS011;70471;53.200;6.080;2023-12-04T13:42:46;3.17;;;1.40;;
76121;SDS011;70471;53.200;6.080;2023-12-04T13:47:57;1.42;;;1.30;;
76121;SDS011;70471;53.200;6.080;2023-12-04T13:52:49;1.90;;;1.45;;
76121;SDS011;70471;53.200;6.080;2023-12-04T13:57:45;1.83;;;1.52;;
76121;SDS011;70471;53.200;6.080;2023-12-04T14:02:54;1.08;;;0.98;;
76121;SDS011;70471;53.200;6.080;2023-12-04T14:07:55;1.48;;;1.05;;
76121;SDS011;70471;53.200;6.080;2023-12-04T14:12:48;1.55;;;1.08;;
76121;SDS011;70471;53.200;6.080;2023-12-04T14:17:40;1.17;;;0.98;;
76121;SDS011;70471;53.200;6.080;2023-12-04T14:22:31;1.52;;;0.90;;
76121;SDS011;70471;53.200;6.080;2023-12-04T14:27:25;1.98;;;0.90;;
76121;SDS011;70471;53.200;6.080;2023-12-04T14:32:16;1.77;;;1.10;;
76121;SDS011;70471;53.200;6.080;2023-12-04T14:37:10;1.15;;;1.00;;
76121;SDS011;70471;53.200;6.080;2023-12-04T14:42:01;1.08;;;0.82;;
76121;SDS011;70471;53.200;6.080;2023-12-04T14:46:54;2.17;;;1.45;;
76121;SDS011;70471;53.200;6.080;2023-12-04T14:51:45;1.23;;;0.95;;
76121;SDS011;70471;53.200;6.080;2023-12-04T14:56:40;1.48;;;0.80;;
76121;SDS011;70471;53.200;6.080;2023-12-04T15:01:53;1.00;;;0.90;;
76121;SDS011;70471;53.200;6.080;2023-12-04T15:07:03;0.82;;;0.70;;
76121;SDS011;70471;53.200;6.080;2023-12-04T15:12:12;0.90;;;0.70;;
76121;SDS011;70471;53.200;6.080;2023-12-04T15:17:16;1.42;;;0.90;;
76121;SDS011;70471;53.200;6.080;2023-12-04T15:22:19;0.82;;;0.70;;
76121;SDS011;70471;53.200;6.080;2023-12-04T15:27:12;1.52;;;0.90;;
76121;SDS011;70471;53.200;6.080;2023-12-04T15:32:04;1.23;;;0.82;;
76121;SDS011;70471;53.200;6.080;2023-12-04T15:36:58;1.42;;;0.90;;
76121;SDS011;70471;53.200;6.080;2023-12-04T15:41:50;1.23;;;0.85;;
76121;SDS011;70471;53.200;6.080;2023-12-04T15:46:42;1.77;;;0.65;;
76121;SDS011;70471;53.200;6.080;2023-12-04T15:51:34;0.70;;;0.70;;
76121;SDS011;70471;53.200;6.080;2023-12-04T15:56:28;1.10;;;0.80;;
76121;SDS011;70471;53.200;6.080;2023-12-04T16:01:19;0.95;;;0.70;;
76121;SDS011;70471;53.200;6.080;2023-12-04T16:06:11;1.00;;;0.75;;
76121;SDS011;70471;53.200;6.080;2023-12-04T16:15:56;1.08;;;0.95;;
76121;SDS011;70471;53.200;6.080;2023-12-04T16:20:47;1.65;;;0.95;;
76121;SDS011;70471;53.200;6.080;2023-12-04T16:25:39;2.75;;;0.85;;
76121;SDS011;70471;53.200;6.080;2023-12-04T16:30:30;0.70;;;0.60;;
76121;SDS011;70471;53.200;6.080;2023-12-04T16:40:14;1.05;;;0.70;;
76121;SDS011;70471;53.200;6.080;2023-12-04T16:45:06;1.25;;;0.70;;
76121;SDS011;70471;53.200;6.080;2023-12-04T16:49:59;1.00;;;0.82;;
76121;SDS011;70471;53.200;6.080;2023-12-04T16:54:53;1.27;;;1.00;;
76121;SDS011;70471;53.200;6.080;2023-12-04T16:59:46;0.70;;;0.70;;
76121;SDS011;70471;53.200;6.080;2023-12-04T17:04:38;0.70;;;0.68;;
76121;SDS011;70471;53.200;6.080;2023-12-04T17:09:30;1.10;;;0.85;;
76121;SDS011;70471;53.200;6.080;2023-12-04T17:19:14;1.08;;;0.90;;
76121;SDS011;70471;53.200;6.080;2023-12-04T17:24:06;1.08;;;0.70;;
76121;SDS011;70471;53.200;6.080;2023-12-04T17:28:58;1.30;;;0.90;;
76121;SDS011;70471;53.200;6.080;2023-12-04T17:33:52;0.93;;;0.80;;
76121;SDS011;70471;53.200;6.080;2023-12-04T17:38:44;1.08;;;0.82;;
76121;SDS011;70471;53.200;6.080;2023-12-04T17:43:37;0.75;;;0.65;;
76121;SDS011;70471;53.200;6.080;2023-12-04T17:48:29;0.73;;;0.68;;
76121;SDS011;70471;53.200;6.080;2023-12-04T17:53:23;1.10;;;0.90;;
76121;SDS011;70471;53.200;6.080;2023-12-04T17:58:15;1.42;;;0.90;;
76121;SDS011;70471;53.200;6.080;2023-12-04T18:03:07;1.48;;;0.90;;
76121;SDS011;70471;53.200;6.080;2023-12-04T18:07:59;1.17;;;0.90;;
76121;SDS011;70471;53.200;6.080;2023-12-04T18:12:54;1.20;;;1.05;;
76121;SDS011;70471;53.200;6.080;2023-12-04T18:17:46;2.17;;;1.00;;
76121;SDS011;70471;53.200;6.080;2023-12-04T18:22:38;1.00;;;0.90;;
76121;SDS011;70471;53.200;6.080;2023-12-04T18:27:30;1.17;;;1.08;;
76121;SDS011;70471;53.200;6.080;2023-12-04T18:32:24;1.20;;;1.10;;
76121;SDS011;70471;53.200;6.080;2023-12-04T18:37:19;2.00;;;1.00;;
76121;SDS011;70471;53.200;6.080;2023-12-04T18:42:13;1.17;;;1.00;;
76121;SDS011;70471;53.200;6.080;2023-12-04T18:47:07;0.90;;;0.70;;
76121;SDS011;70471;53.200;6.080;2023-12-04T18:52:02;1.58;;;1.15;;
76121;SDS011;70471;53.200;6.080;2023-12-04T18:56:55;0.73;;;0.60;;
76121;SDS011;70471;53.200;6.080;2023-12-04T19:01:47;1.30;;;0.70;;
76121;SDS011;70471;53.200;6.080;2023-12-04T19:06:39;1.25;;;0.90;;
76121;SDS011;70471;53.200;6.080;2023-12-04T19:11:36;1.40;;;0.80;;
76121;SDS011;70471;53.200;6.080;2023-12-04T19:16:28;1.23;;;0.90;;
76121;SDS011;70471;53.200;6.080;2023-12-04T19:21:20;1.42;;;0.90;;
76121;SDS011;70471;53.200;6.080;2023-12-04T19:26:12;0.82;;;0.80;;
76121;SDS011;70471;53.200;6.080;2023-12-04T19:31:06;1.45;;;0.82;;
76121;SDS011;70471;53.200;6.080;2023-12-04T19:35:58;0.88;;;0.77;;
76121;SDS011;70471;53.200;6.080;2023-12-04T19:40:51;1.30;;;0.90;;
76121;SDS011;70471;53.200;6.080;2023-12-04T19:45:43;2.17;;;1.00;;
76121;SDS011;70471;53.200;6.080;2023-12-04T19:50:36;0.90;;;0.70;;
76121;SDS011;70471;53.200;6.080;2023-12-04T19:55:29;1.40;;;1.00;;
76121;SDS011;70471;53.200;6.080;2023-12-04T20:00:21;1.17;;;0.95;;
76121;SDS011;70471;53.200;6.080;2023-12-04T20:05:13;0.95;;;0.73;;
76121;SDS011;70471;53.200;6.080;2023-12-04T20:10:08;1.27;;;0.90;;
76121;SDS011;70471;53.200;6.080;2023-12-04T20:15:00;1.45;;;0.80;;
76121;SDS011;70471;53.200;6.080;2023-12-04T20:19:52;1.60;;;1.10;;
76121;SDS011;70471;53.200;6.080;2023-12-04T20:24:44;1.33;;;1.23;;
76121;SDS011;70471;53.200;6.080;2023-12-04T20:29:39;1.55;;;1.05;;
76121;SDS011;70471;53.200;6.080;2023-12-04T20:34:30;1.40;;;1.02;;
76121;SDS011;70471;53.200;6.080;2023-12-04T20:39:22;0.60;;;0.60;;
76121;SDS011;70471;53.200;6.080;2023-12-04T20:44:13;1.50;;;1.00;;
76121;SDS011;70471;53.200;6.080;2023-12-04T20:49:07;1.17;;;0.80;;
76121;SDS011;70471;53.200;6.080;2023-12-04T20:54:00;1.23;;;1.13;;
76121;SDS011;70471;53.200;6.080;2023-12-04T20:58:52;1.85;;;1.20;;
76121;SDS011;70471;53.200;6.080;2023-12-04T21:03:45;1.65;;;0.85;;
76121;SDS011;70471;53.200;6.080;2023-12-04T21:08:39;0.77;;;0.77;;
76121;SDS011;70471;53.200;6.080;2023-12-04T21:13:31;1.65;;;0.90;;
76121;SDS011;70471;53.200;6.080;2023-12-04T21:18:23;1.15;;;1.02;;
76121;SDS011;70471;53.200;6.080;2023-12-04T21:23:16;1.25;;;0.90;;
76121;SDS011;70471;53.200;6.080;2023-12-04T21:28:10;1.20;;;0.80;;
76121;SDS011;70471;53.200;6.080;2023-12-04T21:33:02;3.95;;;1.00;;
76121;SDS011;70471;53.200;6.080;2023-12-04T21:37:54;1.17;;;0.90;;
76121;SDS011;70471;53.200;6.080;2023-12-04T21:42:46;1.35;;;0.90;;
76121;SDS011;70471;53.200;6.080;2023-12-04T21:47:40;0.85;;;0.80;;
76121;SDS011;70471;53.200;6.080;2023-12-04T21:52:32;1.35;;;0.80;;
76121;SDS011;70471;53.200;6.080;2023-12-04T21:57:40;1.08;;;0.98;;
76121;SDS011;70471;53.200;6.080;2023-12-04T22:02:34;0.80;;;0.80;;
76121;SDS011;70471;53.200;6.080;2023-12-04T22:07:29;1.92;;;1.10;;
76121;SDS011;70471;53.200;6.080;2023-12-04T22:12:21;1.00;;;0.90;;
76121;SDS011;70471;53.200;6.080;2023-12-04T22:17:13;1.25;;;1.00;;
76121;SDS011;70471;53.200;6.080;2023-12-04T22:22:05;1.38;;;0.93;;
76121;SDS011;70471;53.200;6.080;2023-12-04T22:27:00;1.10;;;0.90;;
76121;SDS011;70471;53.200;6.080;2023-12-04T22:31:52;1.08;;;0.95;;
76121;SDS011;70471;53.200;6.080;2023-12-04T22:36:43;1.45;;;1.35;;
76121;SDS011;70471;53.200;6.080;2023-12-04T22:41:35;2.28;;;1.58;;
76121;SDS011;70471;53.200;6.080;2023-12-04T22:46:29;1.00;;;0.88;;
76121;SDS011;70471;53.200;6.080;2023-12-04T22:51:22;1.25;;;1.00;;
76121;SDS011;70471;53.200;6.080;2023-12-04T22:56:14;1.38;;;0.80;;
76121;SDS011;70471;53.200;6.080;2023-12-04T23:01:07;1.10;;;1.00;;
76121;SDS011;70471;53.200;6.080;2023-12-04T23:06:01;1.50;;;0.70;;
76121;SDS011;70471;53.200;6.080;2023-12-04T23:10:53;1.33;;;1.15;;
76121;SDS011;70471;53.200;6.080;2023-12-04T23:15:46;0.88;;;0.88;;
76121;SDS011;70471;53.200;6.080;2023-12-04T23:20:38;1.52;;;0.90;;
76121;SDS011;70471;53.200;6.080;2023-12-04T23:30:22;1.05;;;0.77;;
76121;SDS011;70471;53.200;6.080;2023-12-04T23:35:15;1.17;;;0.90;;
76121;SDS011;70471;53.200;6.080;2023-12-04T23:40:07;1.52;;;1.00;;
76121;SDS011;70471;53.200;6.080;2023-12-04T23:45:01;1.10;;;0.90;;
76121;SDS011;70471;53.200;6.080;2023-12-04T23:49:53;1.83;;;1.10;;
76121;SDS011;70471;53.200;6.080;2023-12-04T23:54:45;0.70;;;0.70;;
76121;SDS011;70471;53.200;6.080;2023-12-04T23:59:37;1.08;;;0.90;;
